createdAt,value
2018-09-29T00:01:04.754Z,8.10
2018-09-29T00:03:33.502Z,8.20
2018-09-29T00:06:02.235Z,8.30
2018-09-29T00:08:31.789Z,8.40
2018-09-29T00:11:00.680Z,8.50
2018-09-29T00:13:29.898Z,8.60
2018-09-29T00:15:58.635Z,8.60
2018-09-29T00:18:27.413Z,8.60
2018-09-29T00:20:56.861Z,8.60
2018-09-29T00:23:25.654Z,8.50
2018-09-29T00:25:54.401Z,8.50
2018-09-29T00:28:23.346Z,8.50
2018-09-29T00:30:52.129Z,8.40
2018-09-29T00:33:20.954Z,8.40
2018-09-29T00:35:49.710Z,8.30
2018-09-29T00:38:18.642Z,8.20
2018-09-29T00:40:47.412Z,8.10
2018-09-29T00:43:16.170Z,8.00
2018-09-29T00:45:45.266Z,7.90
2018-09-29T00:48:14.066Z,7.90
2018-09-29T00:50:42.900Z,7.80
2018-09-29T00:53:11.650Z,7.70
2018-09-29T00:55:40.461Z,7.70
2018-09-29T00:58:09.266Z,7.60
2018-09-29T01:00:38.054Z,7.50
2018-09-29T01:03:07.187Z,7.50
2018-09-29T01:05:35.990Z,7.40
2018-09-29T01:08:04.819Z,7.40
2018-09-29T01:10:33.667Z,7.40
2018-09-29T01:13:02.459Z,7.40
2018-09-29T01:15:31.226Z,7.40
2018-09-29T01:18:00.065Z,7.40
2018-09-29T01:20:28.815Z,7.40
2018-09-29T01:22:57.592Z,7.30
2018-09-29T01:25:26.396Z,7.30
2018-09-29T01:27:55.146Z,7.20
2018-09-29T01:30:23.930Z,7.20
2018-09-29T01:32:52.719Z,7.20
2018-09-29T01:35:21.550Z,7.20
2018-09-29T01:37:50.328Z,7.20
2018-09-29T01:40:19.134Z,7.30
2018-09-29T01:42:47.941Z,7.20
2018-09-29T01:45:16.688Z,7.20
2018-09-29T01:47:45.464Z,7.10
2018-09-29T01:50:14.370Z,7.10
2018-09-29T01:52:43.170Z,7.00
2018-09-29T01:55:11.944Z,7.00
2018-09-29T01:57:40.694Z,6.90
2018-09-29T02:00:10.939Z,6.80
2018-09-29T02:02:39.735Z,6.80
2018-09-29T02:05:08.563Z,6.70
2018-09-29T02:07:37.427Z,6.70
2018-09-29T02:10:06.409Z,6.70
2018-09-29T02:12:35.196Z,6.70
2018-09-29T02:15:04.631Z,6.60
2018-09-29T02:17:33.435Z,6.70
2018-09-29T02:20:02.244Z,6.60
2018-09-29T02:25:06.110Z,6.70
2018-09-29T02:27:34.922Z,6.70
2018-09-29T02:30:03.644Z,6.70
2018-09-29T02:32:32.427Z,6.70
2018-09-29T02:35:01.174Z,6.70
2018-09-29T02:37:29.979Z,6.70
2018-09-29T02:39:58.786Z,6.70
2018-09-29T02:42:27.578Z,6.60
2018-09-29T02:44:56.374Z,6.60
2018-09-29T02:47:25.156Z,6.60
2018-09-29T02:49:53.931Z,6.50
2018-09-29T02:52:22.730Z,6.50
2018-09-29T02:54:51.495Z,6.40
2018-09-29T02:57:20.384Z,6.50
2018-09-29T02:59:49.203Z,6.40
2018-09-29T03:02:17.916Z,6.30
2018-09-29T03:04:46.673Z,6.20
2018-09-29T03:07:15.600Z,6.20
2018-09-29T03:09:44.273Z,6.00
2018-09-29T03:12:13.094Z,5.90
2018-09-29T03:14:41.901Z,5.90
2018-09-29T03:17:10.691Z,5.80
2018-09-29T03:19:39.459Z,5.80
2018-09-29T03:22:08.362Z,5.80
2018-09-29T03:24:37.775Z,5.80
2018-09-29T03:27:06.853Z,5.80
2018-09-29T03:29:35.662Z,5.80
2018-09-29T03:32:04.430Z,5.80
2018-09-29T03:34:33.283Z,5.80
2018-09-29T03:37:02.078Z,5.80
2018-09-29T03:39:30.818Z,5.80
2018-09-29T03:41:59.594Z,5.80
2018-09-29T03:44:28.404Z,5.80
2018-09-29T03:46:57.162Z,5.90
2018-09-29T03:49:25.958Z,5.80
2018-09-29T03:51:54.811Z,5.80
2018-09-29T03:54:24.211Z,5.80
2018-09-29T03:56:52.999Z,5.90
2018-09-29T03:59:22.197Z,5.90
2018-09-29T04:01:51.147Z,5.80
2018-09-29T04:04:19.956Z,5.80
2018-09-29T04:06:48.745Z,5.80
2018-09-29T04:09:17.541Z,5.90
2018-09-29T04:11:47.243Z,5.90
2018-09-29T04:14:16.049Z,5.90
2018-09-29T04:16:44.961Z,5.90
2018-09-29T04:19:13.788Z,5.90
2018-09-29T04:21:46.055Z,5.90
2018-09-29T04:24:16.354Z,6.00
2018-09-29T04:26:45.658Z,5.90
2018-09-29T04:29:15.818Z,5.90
2018-09-29T04:31:44.650Z,5.90
2018-09-29T04:34:14.095Z,5.90
2018-09-29T04:36:43.410Z,5.90
2018-09-29T04:39:13.490Z,5.80
2018-09-29T04:41:48.965Z,5.80
2018-09-29T04:44:17.759Z,5.80
2018-09-29T04:46:46.550Z,5.80
2018-09-29T04:49:15.357Z,5.80
2018-09-29T04:51:44.119Z,5.80
2018-09-29T04:54:13.714Z,5.80
2018-09-29T04:56:43.682Z,5.80
2018-09-29T04:59:12.431Z,5.70
2018-09-29T05:01:41.194Z,5.80
2018-09-29T05:04:10.017Z,5.70
2018-09-29T05:06:38.891Z,5.80
2018-09-29T05:09:08.512Z,5.70
2018-09-29T05:11:37.303Z,5.80
2018-09-29T05:14:07.027Z,5.70
2018-09-29T05:16:37.124Z,5.80
2018-09-29T05:19:06.867Z,5.80
2018-09-29T05:21:35.726Z,5.80
2018-09-29T05:24:04.604Z,5.80
2018-09-29T05:26:33.334Z,5.80
2018-09-29T05:29:02.095Z,5.80
2018-09-29T05:31:31.001Z,5.80
2018-09-29T05:33:59.853Z,5.90
2018-09-29T05:36:28.620Z,5.80
2018-09-29T05:38:57.557Z,5.90
2018-09-29T05:41:26.333Z,5.90
2018-09-29T05:43:55.067Z,5.90
2018-09-29T05:46:23.846Z,5.90
2018-09-29T05:48:53.206Z,5.90
2018-09-29T05:51:22.032Z,6.00
2018-09-29T05:53:50.883Z,6.10
2018-09-29T05:56:19.719Z,6.20
2018-09-29T05:58:48.558Z,6.30
2018-09-29T06:01:17.282Z,6.40
2018-09-29T06:03:46.684Z,6.50
2018-09-29T06:06:15.426Z,6.60
2018-09-29T06:08:44.192Z,6.60
2018-09-29T06:11:13.014Z,6.60
2018-09-29T06:13:46.303Z,6.60
2018-09-29T06:16:15.082Z,6.60
2018-09-29T06:18:44.858Z,6.60
2018-09-29T06:21:13.826Z,6.60
2018-09-29T06:23:42.753Z,6.50
2018-09-29T06:26:11.551Z,6.50
2018-09-29T06:28:40.328Z,6.60
2018-09-29T06:31:09.130Z,6.60
2018-09-29T06:33:37.902Z,6.70
2018-09-29T06:36:06.707Z,6.80
2018-09-29T06:38:36.034Z,6.90
2018-09-29T06:41:04.911Z,7.10
2018-09-29T06:43:33.702Z,7.30
2018-09-29T06:46:02.494Z,7.40
2018-09-29T06:48:31.270Z,7.70
2018-09-29T06:51:00.064Z,7.80
2018-09-29T06:53:28.910Z,8.00
2018-09-29T06:55:57.706Z,8.10
2018-09-29T06:58:26.569Z,8.30
2018-09-29T07:00:55.399Z,8.60
2018-09-29T07:03:24.186Z,8.70
2018-09-29T07:05:52.990Z,8.80
2018-09-29T07:08:21.754Z,9.00
2018-09-29T07:10:50.589Z,9.20
2018-09-29T07:13:19.442Z,9.30
2018-09-29T07:15:48.342Z,9.40
2018-09-29T07:18:17.091Z,9.50
2018-09-29T07:20:45.834Z,9.60
2018-09-29T07:23:14.612Z,9.60
2018-09-29T07:25:43.395Z,9.60
2018-09-29T07:28:12.190Z,9.70
2018-09-29T07:30:40.914Z,9.80
2018-09-29T07:33:09.690Z,9.80
2018-09-29T07:35:38.471Z,10.00
2018-09-29T07:38:07.248Z,10.00
2018-09-29T07:40:36.039Z,10.00
2018-09-29T07:43:04.842Z,10.00
2018-09-29T07:45:33.655Z,10.00
2018-09-29T07:48:02.412Z,10.10
2018-09-29T07:50:31.223Z,10.20
2018-09-29T07:52:59.991Z,10.20
2018-09-29T07:55:28.751Z,10.30
2018-09-29T07:57:57.516Z,10.50
2018-09-29T08:00:26.369Z,10.50
2018-09-29T08:02:55.140Z,10.50
2018-09-29T08:05:23.899Z,10.60
2018-09-29T08:07:52.738Z,10.70
2018-09-29T08:10:21.619Z,10.80
2018-09-29T08:12:53.958Z,10.90
2018-09-29T08:15:22.782Z,11.00
2018-09-29T08:17:51.509Z,11.10
2018-09-29T08:20:20.278Z,11.30
2018-09-29T08:22:49.650Z,11.30
2018-09-29T08:25:18.471Z,11.40
2018-09-29T08:27:48.158Z,11.50
2018-09-29T08:30:16.919Z,11.60
2018-09-29T08:32:45.690Z,11.70
2018-09-29T08:35:14.507Z,11.80
2018-09-29T08:37:43.934Z,11.80
2018-09-29T08:40:13.418Z,11.90
2018-09-29T08:42:42.399Z,11.90
2018-09-29T08:45:11.431Z,12.10
2018-09-29T08:47:40.978Z,12.10
2018-09-29T08:50:09.801Z,12.20
2018-09-29T08:52:38.867Z,12.20
2018-09-29T08:55:08.606Z,12.40
2018-09-29T08:57:37.462Z,12.40
2018-09-29T09:00:06.415Z,12.60
2018-09-29T09:02:37.177Z,12.70
2018-09-29T09:05:07.035Z,12.90
2018-09-29T09:07:35.810Z,13.10
2018-09-29T09:10:04.655Z,13.30
2018-09-29T09:12:36.333Z,13.50
2018-09-29T09:15:05.090Z,13.70
2018-09-29T09:17:33.891Z,13.80
2018-09-29T09:20:02.673Z,13.80
2018-09-29T09:22:31.486Z,13.80
2018-09-29T09:25:00.242Z,13.80
2018-09-29T09:27:29.023Z,13.80
2018-09-29T09:29:58.431Z,13.90
2018-09-29T09:32:27.226Z,13.80
2018-09-29T09:34:56.050Z,13.90
2018-09-29T09:37:24.860Z,14.10
2018-09-29T09:39:53.706Z,14.20
2018-09-29T09:42:22.474Z,14.30
2018-09-29T09:44:51.223Z,14.40
2018-09-29T09:47:20.044Z,14.50
2018-09-29T09:49:48.799Z,14.50
2018-09-29T09:52:17.550Z,14.50
2018-09-29T09:54:46.407Z,14.40
2018-09-29T09:57:15.200Z,14.50
2018-09-29T09:59:43.972Z,14.70
2018-09-29T10:02:18.102Z,14.90
2018-09-29T10:04:47.826Z,15.00
2018-09-29T10:07:16.560Z,14.90
2018-09-29T10:09:45.348Z,15.10
2018-09-29T10:12:14.169Z,15.20
2018-09-29T10:14:42.982Z,15.20
2018-09-29T10:17:11.778Z,15.20
2018-09-29T10:19:40.701Z,15.10
2018-09-29T10:22:09.466Z,15.00
2018-09-29T10:24:38.269Z,15.20
2018-09-29T10:27:07.038Z,15.50
2018-09-29T10:29:36.117Z,15.80
2018-09-29T10:32:04.998Z,16.10
2018-09-29T10:34:33.831Z,16.40
2018-09-29T10:37:02.607Z,16.20
2018-09-29T10:39:31.501Z,16.00
2018-09-29T10:42:00.410Z,16.20
2018-09-29T10:44:29.168Z,16.30
2018-09-29T10:46:57.933Z,16.50
2018-09-29T10:49:26.718Z,16.30
2018-09-29T10:51:55.504Z,16.50
2018-09-29T10:54:24.262Z,16.70
2018-09-29T10:56:53.058Z,16.70
2018-09-29T10:59:21.830Z,16.90
2018-09-29T11:01:57.031Z,17.10
2018-09-29T11:04:26.435Z,17.10
2018-09-29T11:06:55.206Z,16.90
2018-09-29T11:09:24.002Z,16.70
2018-09-29T11:11:52.777Z,16.60
2018-09-29T11:14:21.634Z,16.50
2018-09-29T11:16:50.320Z,16.50
2018-09-29T11:19:19.138Z,16.50
2018-09-29T11:21:48.070Z,16.40
2018-09-29T11:24:16.850Z,16.40
2018-09-29T11:26:45.689Z,16.40
2018-09-29T11:29:14.418Z,16.40
2018-09-29T11:31:43.162Z,16.30
2018-09-29T11:34:11.952Z,16.30
2018-09-29T11:36:40.737Z,16.00
2018-09-29T11:39:11.120Z,16.20
2018-09-29T11:41:40.236Z,16.20
2018-09-29T11:44:09.495Z,16.10
2018-09-29T11:46:38.334Z,16.10
2018-09-29T11:49:07.121Z,16.00
2018-09-29T11:51:35.946Z,16.10
2018-09-29T11:54:04.834Z,16.10
2018-09-29T11:56:34.806Z,16.00
2018-09-29T11:59:03.681Z,15.60
2018-09-29T12:01:32.466Z,15.40
2018-09-29T12:04:01.208Z,15.30
2018-09-29T12:06:30.015Z,15.30
2018-09-29T12:08:58.784Z,15.20
2018-09-29T12:11:27.519Z,15.30
2018-09-29T12:13:56.324Z,15.50
2018-09-29T12:16:25.083Z,15.70
2018-09-29T12:18:53.894Z,15.90
2018-09-29T12:21:22.700Z,16.00
2018-09-29T12:23:51.478Z,16.20
2018-09-29T12:26:20.295Z,16.20
2018-09-29T12:28:49.051Z,16.20
2018-09-29T12:31:17.899Z,16.20
2018-09-29T12:33:46.668Z,16.00
2018-09-29T12:36:15.518Z,15.90
2018-09-29T12:38:44.367Z,16.00
2018-09-29T12:41:13.234Z,16.10
2018-09-29T12:43:41.984Z,16.30
2018-09-29T12:46:10.735Z,16.20
2018-09-29T12:48:39.490Z,16.40
2018-09-29T12:51:08.222Z,16.40
2018-09-29T12:53:36.971Z,16.50
2018-09-29T12:56:05.714Z,16.60
2018-09-29T12:58:34.487Z,16.50
2018-09-29T13:01:03.227Z,16.30
2018-09-29T13:03:31.970Z,16.00
2018-09-29T13:06:00.739Z,15.80
2018-09-29T13:08:29.498Z,15.70
2018-09-29T13:10:58.330Z,15.90
2018-09-29T13:13:27.104Z,16.10
2018-09-29T13:15:55.827Z,16.30
2018-09-29T13:18:24.658Z,16.60
2018-09-29T13:20:53.403Z,16.70
2018-09-29T13:23:22.137Z,16.70
2018-09-29T13:25:50.949Z,16.80
2018-09-29T13:28:19.684Z,16.80
2018-09-29T13:30:48.454Z,16.80
2018-09-29T13:33:17.191Z,16.80
2018-09-29T13:35:45.974Z,17.00
2018-09-29T13:38:14.705Z,17.10
2018-09-29T13:40:43.436Z,17.00
2018-09-29T13:43:12.260Z,17.00
2018-09-29T13:45:41.066Z,16.80
2018-09-29T13:48:09.811Z,16.90
2018-09-29T13:50:38.582Z,16.90
2018-09-29T13:53:07.674Z,17.00
2018-09-29T13:55:36.405Z,17.00
2018-09-29T13:58:05.182Z,16.90
2018-09-29T14:00:33.956Z,16.80
2018-09-29T14:03:02.737Z,16.60
2018-09-29T14:05:31.494Z,16.70
2018-09-29T14:08:00.254Z,16.80
2018-09-29T14:10:29.042Z,16.90
2018-09-29T14:12:57.789Z,16.90
2018-09-29T14:15:27.141Z,16.90
2018-09-29T14:17:55.885Z,16.90
2018-09-29T14:20:24.695Z,17.10
2018-09-29T14:22:53.462Z,17.00
2018-09-29T14:25:22.211Z,17.10
2018-09-29T14:27:51.954Z,17.10
2018-09-29T14:30:20.771Z,17.00
2018-09-29T14:32:49.553Z,16.90
2018-09-29T14:35:18.319Z,16.90
2018-09-29T14:37:47.136Z,17.00
2018-09-29T14:40:15.888Z,17.10
2018-09-29T14:42:44.650Z,16.90
2018-09-29T14:45:13.478Z,17.00
2018-09-29T14:47:42.821Z,17.00
2018-09-29T14:50:11.587Z,17.00
2018-09-29T14:52:40.411Z,17.00
2018-09-29T14:55:09.223Z,16.90
2018-09-29T14:57:37.964Z,16.90
2018-09-29T15:00:06.903Z,16.90
2018-09-29T15:02:35.694Z,16.90
2018-09-29T15:05:04.462Z,16.80
2018-09-29T15:07:33.234Z,16.90
2018-09-29T15:10:02.055Z,16.80
2018-09-29T15:12:30.826Z,16.70
2018-09-29T15:14:59.594Z,16.80
2018-09-29T15:17:28.370Z,16.80
2018-09-29T15:19:57.154Z,16.80
2018-09-29T15:22:25.922Z,16.80
2018-09-29T15:24:54.836Z,16.70
2018-09-29T15:27:23.622Z,16.60
2018-09-29T15:29:52.409Z,16.60
2018-09-29T15:32:21.177Z,16.60
2018-09-29T15:34:49.947Z,16.60
2018-09-29T15:37:18.715Z,16.70
2018-09-29T15:39:47.474Z,16.80
2018-09-29T15:42:16.272Z,16.90
2018-09-29T15:44:45.023Z,17.00
2018-09-29T15:47:13.762Z,16.90
2018-09-29T15:49:42.535Z,16.80
2018-09-29T15:52:11.346Z,16.80
2018-09-29T15:54:41.012Z,16.80
2018-09-29T15:57:09.770Z,16.80
2018-09-29T15:59:38.561Z,16.80
2018-09-29T16:02:07.380Z,16.80
2018-09-29T16:04:36.155Z,17.30
2018-09-29T16:07:04.994Z,18.10
2018-09-29T16:09:33.862Z,18.70
2018-09-29T16:12:02.607Z,19.10
2018-09-29T16:14:32.055Z,19.30
2018-09-29T16:17:00.830Z,19.00
2018-09-29T16:19:29.723Z,18.40
2018-09-29T16:21:58.488Z,17.70
2018-09-29T16:24:27.267Z,17.30
2018-09-29T16:26:56.062Z,16.90
2018-09-29T16:29:24.854Z,16.50
2018-09-29T16:31:53.639Z,16.20
2018-09-29T16:34:22.415Z,15.90
2018-09-29T16:36:51.151Z,15.60
2018-09-29T16:39:19.917Z,15.40
2018-09-29T16:41:48.658Z,15.20
2018-09-29T16:44:17.427Z,15.00
2018-09-29T16:46:46.166Z,14.80
2018-09-29T16:49:14.927Z,14.60
2018-09-29T16:51:43.674Z,14.50
2018-09-29T16:54:12.430Z,14.40
2018-09-29T16:56:41.202Z,14.30
2018-09-29T16:59:09.974Z,14.20
2018-09-29T17:01:38.816Z,14.10
2018-09-29T17:04:07.658Z,13.90
2018-09-29T17:06:36.354Z,13.80
2018-09-29T17:09:08.324Z,13.60
2018-09-29T17:11:37.107Z,13.50
2018-09-29T17:14:05.976Z,13.30
2018-09-29T17:16:35.099Z,13.20
2018-09-29T17:19:03.896Z,13.10
2018-09-29T17:21:32.909Z,12.90
2018-09-29T17:24:01.664Z,12.70
2018-09-29T17:26:30.442Z,12.50
2018-09-29T17:28:59.186Z,12.40
2018-09-29T17:31:27.924Z,12.20
2018-09-29T17:33:56.698Z,12.10
2018-09-29T17:36:25.432Z,12.00
2018-09-29T17:38:54.228Z,11.90
2018-09-29T17:41:23.043Z,11.80
2018-09-29T17:43:51.842Z,11.70
2018-09-29T17:46:20.590Z,11.70
2018-09-29T17:48:49.350Z,11.60
2018-09-29T17:51:18.130Z,11.50
2018-09-29T17:53:46.935Z,11.50
2018-09-29T17:56:15.695Z,11.40
2018-09-29T17:58:44.462Z,11.40
2018-09-29T18:01:13.286Z,11.30
2018-09-29T18:03:42.035Z,11.30
2018-09-29T18:06:10.790Z,11.20
2018-09-29T18:08:39.661Z,11.20
2018-09-29T18:11:08.361Z,11.10
2018-09-29T18:13:37.153Z,11.00
2018-09-29T18:16:05.961Z,11.00
2018-09-29T18:18:34.751Z,11.00
2018-09-29T18:21:03.568Z,10.90
2018-09-29T18:26:07.868Z,10.80
2018-09-29T18:28:36.615Z,10.70
2018-09-29T18:31:05.768Z,10.60
2018-09-29T18:33:34.594Z,10.60
2018-09-29T18:36:03.362Z,10.60
2018-09-29T18:38:32.137Z,10.50
2018-09-29T18:41:00.890Z,10.50
2018-09-29T18:43:29.634Z,10.40
2018-09-29T18:45:58.405Z,10.40
2018-09-29T18:48:27.876Z,10.30
2018-09-29T18:50:56.646Z,10.30
2018-09-29T18:53:25.462Z,10.20
2018-09-29T18:55:54.209Z,10.20
2018-09-29T18:58:22.994Z,10.20
2018-09-29T19:00:51.802Z,10.10
2018-09-29T19:03:20.616Z,10.10
2018-09-29T19:05:49.369Z,10.00
2018-09-29T19:08:18.188Z,9.90
2018-09-29T19:10:46.947Z,9.90
2018-09-29T19:13:15.794Z,9.80
2018-09-29T19:15:44.564Z,9.80
2018-09-29T19:18:13.327Z,9.80
2018-09-29T19:20:42.198Z,9.70
2018-09-29T19:23:10.917Z,9.70
2018-09-29T19:25:39.694Z,9.70
2018-09-29T19:28:08.486Z,9.60
2018-09-29T19:30:37.221Z,9.60
2018-09-29T19:33:06.045Z,9.50
2018-09-29T19:35:34.839Z,9.50
2018-09-29T19:38:03.937Z,9.50
2018-09-29T19:40:32.663Z,9.40
2018-09-29T19:43:01.437Z,9.40
2018-09-29T19:45:30.220Z,9.40
2018-09-29T19:47:58.934Z,9.40
2018-09-29T19:50:27.732Z,9.30
2018-09-29T19:52:56.481Z,9.30
2018-09-29T19:55:25.576Z,9.20
2018-09-29T19:57:54.309Z,9.20
2018-09-29T20:00:23.085Z,9.20
2018-09-29T20:02:51.929Z,9.10
2018-09-29T20:05:20.666Z,9.10
2018-09-29T20:07:49.729Z,9.10
2018-09-29T20:10:18.564Z,9.00
2018-09-29T20:12:47.253Z,9.00
2018-09-29T20:15:16.043Z,9.00
2018-09-29T20:17:44.861Z,9.00
2018-09-29T20:20:13.910Z,8.90
2018-09-29T20:22:42.675Z,8.90
2018-09-29T20:25:11.424Z,8.90
2018-09-29T20:27:40.174Z,8.90
2018-09-29T20:30:08.947Z,8.80
2018-09-29T20:32:37.779Z,8.80
2018-09-29T20:35:06.542Z,8.80
2018-09-29T20:37:35.360Z,8.80
2018-09-29T20:40:04.159Z,8.70
2018-09-29T20:42:32.923Z,8.70
2018-09-29T20:45:01.717Z,8.70
2018-09-29T20:47:30.562Z,8.70
2018-09-29T20:49:59.370Z,8.70
2018-09-29T20:52:28.174Z,8.60
2018-09-29T20:54:56.981Z,8.50
2018-09-29T20:57:25.770Z,8.50
2018-09-29T20:59:55.526Z,8.50
2018-09-29T21:02:24.315Z,8.50
2018-09-29T21:04:54.467Z,8.40
2018-09-29T21:07:23.203Z,8.40
2018-09-29T21:09:52.006Z,8.40
2018-09-29T21:12:21.785Z,8.30
2018-09-29T21:14:50.623Z,8.30
2018-09-29T21:17:19.373Z,8.30
2018-09-29T21:19:48.154Z,8.30
2018-09-29T21:22:16.927Z,8.20
2018-09-29T21:24:45.739Z,8.20
2018-09-29T21:27:14.498Z,8.20
2018-09-29T21:29:43.374Z,8.20
2018-09-29T21:32:12.193Z,8.20
2018-09-29T21:34:40.982Z,8.20
2018-09-29T21:37:09.749Z,8.20
2018-09-29T21:39:38.527Z,8.10
2018-09-29T21:42:07.431Z,8.10
2018-09-29T21:44:36.215Z,8.00
2018-09-29T21:47:05.046Z,8.00
2018-09-29T21:49:33.802Z,8.00
2018-09-29T21:52:02.610Z,7.90
2018-09-29T21:54:31.391Z,7.90
2018-09-29T21:57:00.233Z,7.90
2018-09-29T21:59:28.986Z,7.90
2018-09-29T22:01:57.773Z,7.90
2018-09-29T22:04:26.849Z,7.80
2018-09-29T22:06:55.575Z,7.80
2018-09-29T22:09:24.364Z,7.80
2018-09-29T22:11:53.337Z,7.80
2018-09-29T22:14:22.119Z,7.80
2018-09-29T22:16:50.914Z,7.90
2018-09-29T22:19:19.678Z,7.90
2018-09-29T22:21:48.416Z,7.90
2018-09-29T22:24:17.162Z,7.80
2018-09-29T22:26:45.932Z,7.70
2018-09-29T22:29:14.719Z,7.70
2018-09-29T22:31:43.516Z,7.70
2018-09-29T22:34:12.255Z,7.60
2018-09-29T22:36:41.020Z,7.60
2018-09-29T22:39:11.010Z,7.60
2018-09-29T22:41:39.778Z,7.60
2018-09-29T22:44:08.630Z,7.60
2018-09-29T22:46:38.494Z,7.70
2018-09-29T22:49:07.247Z,7.60
2018-09-29T22:51:36.016Z,7.60
2018-09-29T22:54:04.774Z,7.60
2018-09-29T22:56:33.509Z,7.50
2018-09-29T22:59:02.254Z,7.60
2018-09-29T23:01:31.088Z,7.50
2018-09-29T23:03:59.855Z,7.50
2018-09-29T23:06:28.662Z,7.50
2018-09-29T23:08:57.406Z,7.40
2018-09-29T23:11:26.174Z,7.40
2018-09-29T23:13:54.953Z,7.40
2018-09-29T23:16:23.737Z,7.40
2018-09-29T23:18:52.488Z,7.30
2018-09-29T23:21:21.284Z,7.30
2018-09-29T23:23:50.021Z,7.30
2018-09-29T23:26:18.808Z,7.20
2018-09-29T23:28:47.592Z,7.20
2018-09-29T23:31:16.345Z,7.20
2018-09-29T23:33:45.098Z,7.20
2018-09-29T23:36:13.842Z,7.20
2018-09-29T23:38:42.611Z,7.20
2018-09-29T23:41:11.408Z,7.10
2018-09-29T23:43:40.190Z,7.10
2018-09-29T23:46:08.973Z,7.10
2018-09-29T23:48:37.719Z,7.10
2018-09-29T23:51:06.572Z,7.00
2018-09-29T23:53:35.536Z,7.00
2018-09-29T23:56:04.298Z,6.90
2018-09-29T23:58:33.023Z,6.90
